Time;durP1;ratioP1;P1;durP2;ratioP2;P2;SDS_P1;SDS_P2;PMS_P1;PMS_P2;Temp;Humidity;BMP_temperature;BMP_pressure;BME280_temperature;BME280_humidity;BME280_pressure;Samples;Min_cycle;Max_cycle;Signal;HPM_P1;HPM_P2
2022/04/09 00:01:42;;;;;;;7.57;4.22;;;22.50;53.50;;;;;;5077763;28;20037;-72
2022/04/09 00:04:08;;;;;;;8.00;4.28;;;22.50;53.50;;;;;;5077979;28;20033;-72
2022/04/09 00:06:34;;;;;;;7.35;4.20;;;22.40;53.30;;;;;;5077744;28;20037;-73
2022/04/09 00:09:00;;;;;;;6.38;4.50;;;22.50;53.30;;;;;;5077030;28;20064;-73
2022/04/09 00:11:26;;;;;;;8.63;3.83;;;22.50;53.30;;;;;;5077618;28;20037;-72
2022/04/09 00:13:52;;;;;;;5.68;3.63;;;22.60;53.30;;;;;;5077791;28;20044;-73
2022/04/09 00:16:19;;;;;;;8.70;3.53;;;22.50;53.30;;;;;;5077520;28;20051;-73
2022/04/09 00:18:45;;;;;;;5.10;2.80;;;22.60;53.30;;;;;;5077710;28;20054;-72
2022/04/09 00:21:11;;;;;;;4.10;3.10;;;22.60;53.20;;;;;;5077578;28;20041;-72
2022/04/09 00:23:37;;;;;;;9.38;2.80;;;22.50;53.20;;;;;;5076748;28;20045;-73
2022/04/09 00:26:04;;;;;;;5.28;3.13;;;22.70;53.20;;;;;;5076863;28;20056;-72
2022/04/09 00:28:29;;;;;;;3.35;2.90;;;22.50;53.10;;;;;;5076713;28;20044;-73
2022/04/09 00:30:56;;;;;;;5.95;2.97;;;22.50;53.10;;;;;;5076742;28;20037;-73
2022/04/09 00:33:23;;;;;;;5.35;2.58;;;22.50;53.10;;;;;;5077260;28;20045;-73
2022/04/09 00:35:49;;;;;;;6.43;3.08;;;22.50;53.10;;;;;;5077123;28;20078;-73
2022/04/09 00:38:15;;;;;;;3.63;2.70;;;22.50;53.10;;;;;;5076480;28;20047;-73
2022/04/09 00:40:41;;;;;;;7.60;3.00;;;22.50;53.10;;;;;;5076616;28;20049;-73
2022/04/09 00:43:07;;;;;;;3.55;2.80;;;22.40;53.10;;;;;;5076972;28;20037;-73
2022/04/09 00:45:34;;;;;;;6.55;2.72;;;22.50;53.30;;;;;;5077047;28;20463;-72
2022/04/09 00:48:01;;;;;;;3.35;2.80;;;22.40;53.10;;;;;;5076516;28;20059;-73
2022/04/09 00:50:27;;;;;;;5.47;3.05;;;22.40;53.10;;;;;;5076989;28;20033;-72
2022/04/09 00:52:57;;;;;;;4.82;2.88;;;22.50;53.10;;;;;;5076966;28;20037;-73
2022/04/09 00:58:14;;;;;;;2.92;2.63;;;22.50;53.10;;;;;;5076841;28;20118;-72
2022/04/09 01:00:42;;;;;;;3.10;2.40;;;22.50;53.10;;;;;;5076968;28;20029;-72
2022/04/09 01:03:11;;;;;;;3.22;2.55;;;22.50;53.10;;;;;;5076730;28;20049;-72
2022/04/09 01:05:41;;;;;;;4.35;2.55;;;22.50;53.00;;;;;;5076603;28;20045;-72
2022/04/09 01:08:07;;;;;;;5.88;2.97;;;22.60;52.90;;;;;;5076882;28;20043;-72
2022/04/09 01:10:33;;;;;;;5.35;3.20;;;22.40;52.80;;;;;;5075931;28;20037;-72
2022/04/09 01:13:01;;;;;;;3.78;2.55;;;22.50;53.00;;;;;;5075970;28;20037;-72
2022/04/09 01:15:28;;;;;;;5.03;3.40;;;22.30;52.90;;;;;;5075508;28;20045;-71
2022/04/09 01:17:55;;;;;;;5.05;3.55;;;22.40;52.80;;;;;;5076648;28;20061;-72
2022/04/09 01:20:26;;;;;;;4.45;3.30;;;22.40;52.70;;;;;;5075758;28;20053;-73
2022/04/09 01:22:53;;;;;;;2.55;2.35;;;22.40;52.70;;;;;;5075834;28;20045;-72
2022/04/09 01:25:21;;;;;;;5.25;3.25;;;22.40;52.80;;;;;;5076080;28;20045;-72
2022/04/09 01:27:50;;;;;;;3.88;2.50;;;22.40;52.80;;;;;;5075967;28;20065;-73
2022/04/09 01:30:17;;;;;;;3.53;3.17;;;22.40;52.90;;;;;;5076518;28;20063;-73
2022/04/09 01:32:44;;;;;;;4.53;2.47;;;22.40;52.90;;;;;;5075547;28;20044;-72
2022/04/09 01:35:11;;;;;;;3.45;2.80;;;22.40;52.90;;;;;;5075823;28;20071;-73
2022/04/09 01:37:37;;;;;;;4.75;2.75;;;22.40;52.80;;;;;;5075831;28;20045;-73
2022/04/09 01:40:05;;;;;;;4.97;2.92;;;22.50;52.70;;;;;;5075338;28;20056;-72
2022/04/09 01:42:31;;;;;;;3.58;2.78;;;22.50;52.70;;;;;;5076197;28;20033;-72
2022/04/09 01:44:59;;;;;;;4.35;3.13;;;22.50;52.60;;;;;;5075603;28;20045;-72
2022/04/09 01:47:25;;;;;;;4.72;2.53;;;22.60;52.50;;;;;;5076457;28;20033;-73
2022/04/09 01:49:51;;;;;;;5.50;3.42;;;22.60;52.50;;;;;;5076480;28;20025;-73
2022/04/09 01:52:17;;;;;;;5.35;3.13;;;22.60;52.40;;;;;;5076206;28;20041;-72
2022/04/09 01:54:44;;;;;;;4.15;2.80;;;22.50;52.40;;;;;;5075534;28;20087;-73
2022/04/09 01:57:10;;;;;;;3.50;2.40;;;22.50;52.50;;;;;;5076350;28;20037;-72
2022/04/09 01:59:36;;;;;;;5.97;3.85;;;22.50;52.50;;;;;;5075693;28;20048;-72
2022/04/09 02:02:04;;;;;;;5.68;2.47;;;22.50;52.60;;;;;;5075546;28;20041;-73
2022/04/09 02:04:31;;;;;;;4.00;3.15;;;22.50;52.60;;;;;;5076028;28;20057;-72
2022/04/09 02:07:00;;;;;;;6.78;3.10;;;22.40;52.60;;;;;;5075419;28;20101;-73
2022/04/09 02:09:26;;;;;;;3.88;2.88;;;22.50;52.60;;;;;;5075444;28;20041;-72
2022/04/09 02:11:52;;;;;;;4.65;3.10;;;22.40;52.60;;;;;;5076208;28;20041;-73
2022/04/09 02:14:18;;;;;;;4.80;2.92;;;22.40;52.70;;;;;;5075201;28;20055;-72
2022/04/09 02:16:44;;;;;;;4.43;3.10;;;22.50;52.80;;;;;;5076070;28;20045;-72
2022/04/09 02:19:11;;;;;;;5.60;3.47;;;22.40;52.70;;;;;;5076185;28;20114;-72
2022/04/09 02:21:37;;;;;;;5.18;3.70;;;22.50;52.70;;;;;;5075279;28;20075;-72
2022/04/09 02:24:04;;;;;;;4.85;3.53;;;22.40;52.60;;;;;;5075825;28;20041;-72
2022/04/09 02:26:31;;;;;;;3.92;2.75;;;22.50;52.70;;;;;;5075896;28;20051;-73
2022/04/09 02:28:58;;;;;;;6.78;3.42;;;22.50;52.80;;;;;;5058583;28;20041;-73
2022/04/09 02:31:24;;;;;;;6.00;3.63;;;22.50;52.60;;;;;;5076513;28;20097;-72
2022/04/09 02:33:53;;;;;;;4.88;3.05;;;22.50;52.50;;;;;;5062494;28;20048;-72
2022/04/09 02:36:22;;;;;;;5.53;4.13;;;22.60;52.50;;;;;;5079435;28;20091;-72
2022/04/09 02:38:49;;;;;;;4.03;3.25;;;22.50;52.60;;;;;;5078857;28;20045;-72
2022/04/09 02:41:16;;;;;;;4.97;3.22;;;22.50;52.60;;;;;;5078999;28;20040;-72
2022/04/09 02:43:43;;;;;;;6.03;3.83;;;22.50;52.50;;;;;;5078636;28;20131;-72
2022/04/09 02:46:11;;;;;;;3.90;3.22;;;22.50;52.50;;;;;;5078649;28;20052;-72
2022/04/09 02:48:40;;;;;;;6.90;3.83;;;22.60;52.50;;;;;;5078697;28;20036;-72
2022/04/09 02:51:06;;;;;;;10.00;4.05;;;22.40;52.50;;;;;;5078625;28;20063;-73
2022/04/09 02:53:34;;;;;;;6.05;3.65;;;22.50;52.50;;;;;;5078985;28;20084;-72
2022/04/09 02:56:01;;;;;;;7.03;4.07;;;22.40;52.40;;;;;;5078402;28;20068;-73
2022/04/09 02:58:27;;;;;;;3.90;2.90;;;22.40;52.50;;;;;;5078571;28;20060;-72
2022/04/09 03:00:53;;;;;;;4.00;3.35;;;22.30;52.60;;;;;;5079167;28;20045;-72
2022/04/09 03:03:25;;;;;;;4.15;3.28;;;22.30;52.60;;;;;;5078297;28;20068;-73
2022/04/09 03:05:52;;;;;;;4.13;3.22;;;22.30;52.50;;;;;;5078318;28;20048;-73
2022/04/09 03:08:19;;;;;;;5.28;3.58;;;22.40;52.50;;;;;;5079192;28;20033;-72
2022/04/09 03:10:46;;;;;;;5.05;3.63;;;22.40;52.30;;;;;;5078342;28;20033;-72
2022/04/09 03:13:14;;;;;;;8.38;3.15;;;22.50;52.50;;;;;;5078657;28;20063;-73
2022/04/09 03:15:41;;;;;;;5.60;3.38;;;22.50;52.50;;;;;;5078815;28;20071;-73
2022/04/09 03:18:10;;;;;;;4.55;3.08;;;22.50;52.40;;;;;;5078068;28;20052;-72
2022/04/09 03:20:37;;;;;;;5.10;3.45;;;22.50;52.40;;;;;;5077827;28;20041;-72
2022/04/09 03:23:04;;;;;;;5.18;3.08;;;22.50;52.40;;;;;;5078099;28;20056;-72
2022/04/09 03:25:53;;;;;;;4.97;3.50;;;22.50;52.30;;;;;;5077877;28;20045;-72
2022/04/09 03:28:22;;;;;;;6.68;3.00;;;22.60;52.30;;;;;;5078057;28;20033;-72
2022/04/09 03:30:49;;;;;;;5.78;3.42;;;22.50;52.30;;;;;;5078744;28;20100;-73
2022/04/09 03:33:17;;;;;;;4.65;3.22;;;22.50;52.30;;;;;;5077577;28;20036;-72
2022/04/09 03:35:43;;;;;;;6.97;3.20;;;22.60;52.30;;;;;;5078710;28;20052;-73
2022/04/09 03:38:14;;;;;;;9.20;3.55;;;22.50;52.30;;;;;;5077707;28;20037;-72
2022/04/09 03:40:54;;;;;;;4.78;3.45;;;22.50;52.30;;;;;;5077741;28;20055;-72
2022/04/09 03:43:26;;;;;;;5.40;2.88;;;22.50;52.50;;;;;;5076425;28;20041;-72
2022/04/09 03:45:52;;;;;;;8.50;3.42;;;22.40;52.40;;;;;;5077035;28;20123;-72
2022/04/09 03:48:19;;;;;;;3.30;3.00;;;22.40;52.50;;;;;;5077768;28;20209;-72
2022/04/09 03:50:45;;;;;;;6.63;3.53;;;22.40;52.60;;;;;;5077600;28;20055;-72
2022/04/09 03:53:19;;;;;;;4.35;2.95;;;22.40;52.60;;;;;;5077165;28;20055;-72
2022/04/09 03:55:48;;;;;;;6.63;3.08;;;22.20;52.60;;;;;;5077556;28;20033;-72
2022/04/09 03:58:19;;;;;;;6.30;4.15;;;22.30;52.70;;;;;;5077405;28;20041;-72
2022/04/09 04:00:46;;;;;;;5.38;3.70;;;22.30;52.70;;;;;;5077021;28;20043;-73
2022/04/09 04:03:13;;;;;;;4.75;3.30;;;22.30;52.60;;;;;;5076621;28;20063;-72
2022/04/09 04:05:40;;;;;;;5.40;3.38;;;22.40;52.60;;;;;;5076366;28;20100;-72
2022/04/09 04:08:07;;;;;;;3.13;2.83;;;22.50;52.50;;;;;;5077088;28;20045;-72
2022/04/09 04:10:36;;;;;;;3.92;2.88;;;22.50;52.30;;;;;;5075663;28;20033;-72
2022/04/09 04:13:12;;;;;;;4.57;3.20;;;22.60;52.20;;;;;;5076218;28;20056;-73
2022/04/09 04:15:42;;;;;;;5.30;3.40;;;22.60;52.10;;;;;;5076310;28;20045;-72
2022/04/09 04:18:09;;;;;;;8.10;3.40;;;22.60;52.00;;;;;;5076413;28;20117;-72
2022/04/09 04:20:39;;;;;;;8.40;3.25;;;22.60;52.00;;;;;;5076235;28;20509;-71
2022/04/09 04:23:06;;;;;;;8.68;3.60;;;22.60;51.80;;;;;;5076359;28;20068;-77
2022/04/09 04:25:34;;;;;;;4.57;2.90;;;22.70;55.00;;;;;;5074892;28;20056;-77
2022/04/09 04:28:00;;;;;;;4.50;3.22;;;22.80;55.30;;;;;;5076152;28;20116;-76
2022/04/09 04:30:26;;;;;;;6.25;4.28;;;23.00;56.40;;;;;;5076744;28;20063;-78
2022/04/09 04:32:53;;;;;;;7.88;4.55;;;23.20;55.10;;;;;;5076083;28;20044;-79
2022/04/09 04:35:28;;;;;;;13.65;4.05;;;23.20;51.20;;;;;;5075969;28;20033;-80
2022/04/09 04:37:55;;;;;;;6.22;3.65;;;23.20;50.20;;;;;;5075210;28;20071;-72
2022/04/09 04:40:24;;;;;;;6.40;3.33;;;23.00;51.10;;;;;;5075770;28;20061;-72
2022/04/09 04:42:55;;;;;;;5.13;3.55;;;23.10;50.80;;;;;;5075822;28;20048;-72
2022/04/09 04:45:24;;;;;;;4.50;3.42;;;23.00;50.60;;;;;;5075620;28;20041;-72
2022/04/09 04:47:53;;;;;;;5.28;2.90;;;22.90;51.10;;;;;;5075986;28;20036;-72
2022/04/09 04:50:24;;;;;;;3.45;2.90;;;22.90;51.40;;;;;;5075607;28;20116;-73
2022/04/09 04:52:51;;;;;;;5.82;3.55;;;22.90;51.90;;;;;;5075538;28;20032;-72
2022/04/09 04:55:19;;;;;;;7.60;2.85;;;22.90;52.10;;;;;;5074111;28;20083;-72
2022/04/09 04:57:51;;;;;;;6.72;3.10;;;22.90;52.40;;;;;;5058888;28;20041;-72
2022/04/09 05:00:24;;;;;;;4.28;2.50;;;22.80;52.50;;;;;;5075434;28;20190;-73
2022/04/09 05:02:53;;;;;;;4.32;2.05;;;22.80;48.00;;;;;;5059103;28;20044;-72
2022/04/09 05:05:21;;;;;;;1.70;1.30;;;22.90;47.50;;;;;;5075056;28;20053;-73
2022/04/09 05:07:52;;;;;;;2.35;1.70;;;22.70;44.60;;;;;;5075597;28;20041;-72
2022/04/09 05:10:23;;;;;;;2.50;1.63;;;22.70;44.80;;;;;;5059175;28;20029;-72
2022/04/09 05:12:51;;;;;;;2.63;2.30;;;22.90;44.40;;;;;;5072010;28;20040;-74
2022/04/09 05:15:18;;;;;;;3.58;2.35;;;22.80;43.90;;;;;;5055049;28;20055;-75
2022/04/09 05:17:47;;;;;;;4.20;3.10;;;22.90;48.80;;;;;;5090825;28;20048;-73
2022/04/09 05:20:15;;;;;;;6.18;2.80;;;23.00;43.30;;;;;;5055654;28;20045;-74
2022/04/09 05:22:46;;;;;;;5.88;2.92;;;22.80;41.60;;;;;;5075407;28;20032;-75
2022/04/09 05:25:18;;;;;;;4.53;3.17;;;22.90;44.50;;;;;;5074899;28;20070;-74
2022/04/09 05:27:49;;;;;;;4.75;3.03;;;22.80;43.30;;;;;;5075810;28;20037;-74
2022/04/09 05:30:25;;;;;;;3.20;2.70;;;22.80;43.10;;;;;;5075509;28;20041;-75
2022/04/09 05:32:53;;;;;;;4.05;2.83;;;22.70;43.10;;;;;;5074624;28;20093;-73
2022/04/09 05:35:20;;;;;;;8.88;3.03;;;22.90;41.90;;;;;;5074828;28;20051;-74
2022/04/09 05:37:51;;;;;;;3.65;2.40;;;22.90;41.00;;;;;;5074115;28;20044;-74
2022/04/09 05:40:22;;;;;;;3.42;2.65;;;22.90;41.10;;;;;;5074190;28;20053;-74
2022/04/09 05:42:49;;;;;;;6.38;2.50;;;23.10;40.10;;;;;;5074452;28;20041;-72
2022/04/09 05:45:17;;;;;;;6.15;2.92;;;22.90;39.40;;;;;;5073898;28;20064;-75
2022/04/09 05:47:46;;;;;;;3.85;2.22;;;23.00;40.50;;;;;;5073871;28;20112;-73
2022/04/09 05:50:17;;;;;;;5.28;3.05;;;23.00;40.50;;;;;;5072130;28;20033;-73
2022/04/09 05:52:43;;;;;;;7.35;3.95;;;23.20;40.00;;;;;;5074473;28;20055;-73
2022/04/09 05:55:12;;;;;;;7.97;3.75;;;23.10;52.20;;;;;;5074510;28;20044;-74
2022/04/09 05:57:40;;;;;;;5.45;3.70;;;23.20;48.20;;;;;;5074903;28;20052;-72
2022/04/09 06:00:10;;;;;;;10.90;3.67;;;23.10;50.80;;;;;;5074962;28;20037;-72
2022/04/09 06:02:53;;;;;;;8.77;3.90;;;23.10;52.00;;;;;;5069491;28;20041;-72
2022/04/09 06:05:28;;;;;;;8.27;4.25;;;23.10;49.30;;;;;;5074389;28;20047;-72
2022/04/09 06:07:56;;;;;;;7.40;4.20;;;23.00;49.50;;;;;;5078593;28;20037;-71
2022/04/09 06:10:22;;;;;;;13.57;4.10;;;23.10;49.30;;;;;;5078837;28;20045;-71
2022/04/09 06:12:49;;;;;;;8.27;4.15;;;23.10;49.20;;;;;;5061566;28;20043;-71
2022/04/09 06:15:22;;;;;;;3.95;3.45;;;23.10;48.60;;;;;;5078424;28;20037;-72
2022/04/09 06:17:52;;;;;;;7.05;4.78;;;23.00;49.50;;;;;;5077301;28;20045;-71
2022/04/09 06:20:18;;;;;;;6.53;4.32;;;23.10;52.20;;;;;;5058820;28;20052;-71
2022/04/09 06:22:45;;;;;;;4.88;3.45;;;23.10;51.30;;;;;;5059065;28;20101;-71
2022/04/09 06:25:14;;;;;;;5.13;3.58;;;23.10;53.00;;;;;;5058031;28;20041;-71
2022/04/09 06:27:41;;;;;;;9.48;4.03;;;23.20;52.40;;;;;;5058326;28;20064;-71
2022/04/09 06:30:10;;;;;;;9.18;4.13;;;23.20;53.40;;;;;;5074815;28;20049;-72
2022/04/09 06:32:38;;;;;;;5.07;3.25;;;23.20;49.30;;;;;;5058401;28;20042;-73
2022/04/09 06:35:06;;;;;;;6.97;4.30;;;23.10;53.00;;;;;;5057560;28;20038;-73
2022/04/09 06:37:36;;;;;;;4.78;3.80;;;23.20;54.20;;;;;;5058303;28;20068;-74
2022/04/09 06:40:02;;;;;;;4.90;3.42;;;23.20;53.20;;;;;;5074581;28;20064;-78
2022/04/09 06:42:29;;;;;;;5.63;3.47;;;23.20;53.90;;;;;;5074462;28;20041;-71
2022/04/09 06:45:15;;;;;;;6.47;3.97;;;23.20;53.20;;;;;;5058287;28;20042;-71
2022/04/09 06:48:13;;;;;;;9.15;3.72;;;23.20;52.90;;;;;;5058834;28;20033;-74
2022/04/09 06:50:48;;;;;;;8.13;4.50;;;23.20;52.20;;;;;;5057951;28;20041;-72
2022/04/09 06:53:15;;;;;;;14.35;5.10;;;23.20;51.40;;;;;;5074040;28;20040;-71
2022/04/09 06:55:42;;;;;;;8.35;4.32;;;23.20;50.90;;;;;;5074258;28;20041;-71
2022/04/09 06:58:08;;;;;;;5.35;3.97;;;23.20;50.40;;;;;;5068877;28;20104;-70
2022/04/09 07:00:35;;;;;;;6.78;4.22;;;23.20;50.40;;;;;;5077736;28;20128;-71
2022/04/09 07:03:02;;;;;;;11.30;4.13;;;23.20;50.50;;;;;;5077394;28;20040;-74
2022/04/09 07:05:29;;;;;;;10.38;4.07;;;23.20;50.80;;;;;;5077844;28;20097;-69
2022/04/09 07:07:55;;;;;;;10.30;3.72;;;23.20;50.90;;;;;;5077960;28;20047;-76
2022/04/09 07:10:21;;;;;;;6.25;4.10;;;23.30;51.40;;;;;;5077360;28;20044;-71
2022/04/09 07:12:47;;;;;;;9.57;4.47;;;23.30;52.70;;;;;;5078072;28;20086;-72
2022/04/09 07:15:13;;;;;;;6.22;4.10;;;23.30;52.50;;;;;;5077648;28;20040;-71
2022/04/09 07:17:41;;;;;;;8.57;3.97;;;23.30;51.40;;;;;;5076790;28;20045;-71
2022/04/09 07:20:08;;;;;;;7.10;4.50;;;23.30;51.50;;;;;;5077951;28;20059;-71
2022/04/09 07:22:36;;;;;;;10.07;4.78;;;23.40;51.40;;;;;;5077424;28;20048;-76
2022/04/09 07:25:04;;;;;;;7.03;4.30;;;23.30;51.40;;;;;;5077233;28;20049;-75
2022/04/09 07:27:38;;;;;;;9.70;5.05;;;23.30;51.50;;;;;;5078079;28;20052;-79
2022/04/09 07:30:07;;;;;;;9.30;4.63;;;23.30;51.10;;;;;;5077308;28;20051;-80
2022/04/09 07:32:33;;;;;;;9.15;4.53;;;23.30;50.80;;;;;;5076803;28;20033;-80
2022/04/09 07:35:00;;;;;;;8.27;4.93;;;23.40;50.30;;;;;;5059789;28;20048;-82
2022/04/09 07:37:26;;;;;;;9.38;4.75;;;23.30;49.90;;;;;;5076765;28;20051;-70
2022/04/09 07:39:52;;;;;;;8.65;4.88;;;23.30;49.80;;;;;;5077612;28;20032;-73
2022/04/09 07:42:20;;;;;;;7.47;4.40;;;23.40;49.70;;;;;;5077618;28;20032;-70
2022/04/09 07:44:47;;;;;;;7.82;4.72;;;23.30;43.60;;;;;;5076828;28;20059;-69
2022/04/09 07:47:14;;;;;;;8.50;4.07;;;23.30;45.60;;;;;;5076311;28;20064;-68
2022/04/09 07:49:44;;;;;;;6.65;4.40;;;23.30;45.90;;;;;;5076952;28;20542;-69
2022/04/09 07:52:13;;;;;;;13.77;5.40;;;23.30;46.40;;;;;;5077535;28;20033;-69
2022/04/09 07:54:40;;;;;;;7.57;4.80;;;23.30;46.70;;;;;;5077660;28;20041;-69
2022/04/09 07:57:06;;;;;;;7.80;4.30;;;23.40;46.90;;;;;;5077774;28;20037;-69
2022/04/09 07:59:32;;;;;;;11.85;3.95;;;23.30;47.20;;;;;;5075843;28;20120;-70
2022/04/09 08:01:58;;;;;;;7.53;4.10;;;23.40;47.40;;;;;;5077064;28;20043;-70
2022/04/09 08:04:24;;;;;;;10.80;4.40;;;23.30;47.50;;;;;;5077202;28;20084;-69
2022/04/09 08:06:50;;;;;;;9.25;4.18;;;23.30;47.50;;;;;;5077007;28;20051;-69
2022/04/09 08:09:17;;;;;;;10.85;5.43;;;23.40;47.40;;;;;;5077194;28;20051;-70
2022/04/09 08:11:43;;;;;;;7.28;4.22;;;23.50;46.10;;;;;;5076983;28;20101;-70
2022/04/09 08:14:09;;;;;;;6.22;4.25;;;23.40;44.90;;;;;;5076916;28;20060;-70
2022/04/09 08:16:38;;;;;;;5.97;3.40;;;23.50;46.40;;;;;;5076766;28;20036;-70
2022/04/09 08:19:04;;;;;;;3.63;2.38;;;23.50;46.40;;;;;;5076644;28;20036;-69
2022/04/09 08:21:30;;;;;;;2.65;2.25;;;23.40;48.00;;;;;;5076684;28;20036;-69
2022/04/09 08:23:56;;;;;;;2.15;1.75;;;23.40;48.50;;;;;;5076846;28;20068;-70
2022/04/09 08:26:22;;;;;;;3.83;1.88;;;23.50;47.40;;;;;;5075500;28;20040;-70
2022/04/09 08:28:48;;;;;;;3.17;1.33;;;23.50;46.10;;;;;;5075457;28;20036;-70
2022/04/09 08:31:14;;;;;;;4.00;2.75;;;23.50;46.50;;;;;;5075713;28;20036;-71
2022/04/09 08:33:40;;;;;;;3.80;3.08;;;23.60;48.30;;;;;;5076399;28;20066;-70
2022/04/09 08:36:07;;;;;;;3.67;2.75;;;23.60;51.30;;;;;;5076087;28;20063;-70
2022/04/09 08:38:33;;;;;;;3.30;1.30;;;23.70;46.20;;;;;;5076507;28;20073;-69
2022/04/09 08:41:03;;;;;;;5.15;1.88;;;23.80;45.00;;;;;;5076508;28;20044;-70
2022/04/09 08:43:30;;;;;;;1.25;1.23;;;23.80;44.70;;;;;;5076518;28;20105;-69
2022/04/09 08:46:02;;;;;;;4.70;2.58;;;23.60;44.30;;;;;;5076312;28;20043;-70
2022/04/09 08:48:28;;;;;;;3.75;2.40;;;23.60;43.30;;;;;;5076504;28;20037;-69
2022/04/09 08:50:55;;;;;;;9.52;2.20;;;23.60;43.60;;;;;;5076219;28;20086;-70
2022/04/09 08:53:21;;;;;;;1.95;1.38;;;23.60;44.10;;;;;;5076432;28;20044;-69
2022/04/09 08:55:48;;;;;;;2.47;1.13;;;23.70;43.10;;;;;;5076281;28;20037;-70
2022/04/09 08:58:14;;;;;;;4.65;1.50;;;23.70;42.70;;;;;;5063825;28;20037;-70
2022/04/09 09:00:42;;;;;;;1.48;1.33;;;23.70;42.60;;;;;;5075710;28;20095;-70
2022/04/09 09:03:11;;;;;;;5.60;2.03;;;23.50;42.40;;;;;;5076181;28;20051;-69
2022/04/09 09:05:40;;;;;;;4.45;2.78;;;23.50;41.10;;;;;;5076048;28;20041;-69
2022/04/09 09:08:08;;;;;;;2.45;1.60;;;23.40;40.90;;;;;;5074937;28;20100;-69
2022/04/09 09:10:35;;;;;;;1.08;1.05;;;23.40;39.10;;;;;;5076162;28;20045;-70
2022/04/09 09:13:03;;;;;;;1.92;1.80;;;23.40;40.30;;;;;;5075942;28;20045;-70
2022/04/09 09:15:44;;;;;;;11.55;1.67;;;23.50;39.60;;;;;;5075955;28;20052;-70
2022/04/09 09:18:18;;;;;;;0.43;0.43;;;23.40;39.30;;;;;;5075363;28;20040;-71
2022/04/09 09:21:05;;;;;;;1.65;1.45;;;23.40;40.40;;;;;;5076141;28;20045;-71
2022/04/09 09:23:33;;;;;;;2.55;2.35;;;23.30;41.30;;;;;;5075020;28;20041;-69
2022/04/09 09:26:01;;;;;;;1.58;1.30;;;23.50;41.50;;;;;;5075042;28;20049;-69
2022/04/09 09:28:29;;;;;;;2.58;1.17;;;23.40;41.40;;;;;;5075941;28;20048;-69
2022/04/09 09:30:57;;;;;;;1.85;1.42;;;23.40;40.80;;;;;;5075691;28;20071;-69
2022/04/09 09:33:23;;;;;;;2.25;1.95;;;23.50;41.60;;;;;;5075735;28;20041;-70
2022/04/09 09:35:50;;;;;;;1.35;1.23;;;23.50;41.00;;;;;;5075424;28;20037;-69
2022/04/09 09:38:27;;;;;;;1.67;0.75;;;23.40;41.30;;;;;;5075842;28;20040;-70
2022/04/09 09:40:55;;;;;;;0.93;0.93;;;23.50;41.30;;;;;;5077329;28;20462;-68
2022/04/09 09:43:23;;;;;;;4.45;2.17;;;23.60;41.30;;;;;;5079730;28;20070;-69
2022/04/09 09:45:53;;;;;;;1.80;1.20;;;23.60;41.10;;;;;;5079887;28;20048;-70
2022/04/09 09:48:26;;;;;;;12.55;1.83;;;23.60;42.10;;;;;;5080047;28;20060;-69
2022/04/09 09:50:56;;;;;;;2.40;1.38;;;23.60;42.90;;;;;;5079846;28;20052;-70
2022/04/09 09:53:33;;;;;;;0.93;0.93;;;23.80;47.30;;;;;;5079639;28;20041;-71
2022/04/09 09:56:02;;;;;;;5.20;2.70;;;23.90;46.60;;;;;;5079723;28;20064;-71
2022/04/09 09:58:29;;;;;;;2.05;1.50;;;24.10;44.60;;;;;;5079698;28;20076;-69
2022/04/09 10:00:57;;;;;;;1.70;1.38;;;24.10;43.40;;;;;;5079482;28;20045;-70
2022/04/09 10:03:24;;;;;;;1.25;1.08;;;24.00;42.80;;;;;;5078912;28;20043;-70
2022/04/09 10:05:51;;;;;;;0.93;0.93;;;23.90;42.40;;;;;;5078911;28;20041;-68
2022/04/09 10:08:18;;;;;;;1.10;1.00;;;23.90;43.00;;;;;;5079482;28;20033;-71
2022/04/09 10:10:51;;;;;;;14.23;2.83;;;24.10;43.10;;;;;;5079515;28;20036;-72
2022/04/09 10:13:21;;;;;;;2.75;2.22;;;24.10;47.60;;;;;;5079414;28;20033;-72
2022/04/09 10:15:50;;;;;;;5.72;1.75;;;24.30;47.60;;;;;;5079246;28;20049;-70
2022/04/09 10:18:23;;;;;;;2.90;1.55;;;24.40;42.20;;;;;;5078779;28;20075;-71
2022/04/09 10:20:54;;;;;;;3.97;2.80;;;24.30;43.00;;;;;;5079482;28;20045;-71
2022/04/09 10:23:22;;;;;;;5.13;3.15;;;24.30;42.00;;;;;;5079067;28;20061;-71
2022/04/09 10:25:53;;;;;;;5.03;2.67;;;24.30;40.30;;;;;;5078756;28;20068;-71
2022/04/09 10:28:32;;;;;;;5.60;2.72;;;24.20;39.20;;;;;;5079002;28;20052;-72
2022/04/09 10:30:59;;;;;;;2.55;2.35;;;24.30;41.30;;;;;;5078941;28;20051;-71
2022/04/09 10:33:28;;;;;;;4.05;3.13;;;24.20;42.60;;;;;;5078711;28;20037;-72
2022/04/09 10:36:01;;;;;;;5.50;2.85;;;24.30;42.50;;;;;;5078732;28;20109;-73
2022/04/09 10:38:28;;;;;;;6.70;2.92;;;24.30;42.10;;;;;;5078663;28;20055;-70
2022/04/09 10:40:57;;;;;;;5.43;3.22;;;24.30;41.50;;;;;;5077818;28;20041;-71
2022/04/09 10:43:25;;;;;;;3.35;3.00;;;24.20;41.00;;;;;;5078789;28;20075;-72
2022/04/09 10:46:02;;;;;;;10.27;2.70;;;24.10;41.20;;;;;;5078508;28;20052;-71
2022/04/09 10:48:35;;;;;;;2.78;2.55;;;24.10;41.30;;;;;;5078834;28;20096;-72
2022/04/09 10:51:04;;;;;;;3.33;2.60;;;24.00;41.50;;;;;;5078690;28;20056;-72
2022/04/09 10:53:34;;;;;;;4.07;2.17;;;24.10;41.70;;;;;;5077696;28;20064;-71
2022/04/09 10:56:26;;;;;;;7.65;3.05;;;24.10;42.30;;;;;;5094436;28;20028;-70
2022/04/09 10:59:10;;;;;;;3.03;2.42;;;24.10;42.60;;;;;;5098682;28;20106;-71
2022/04/09 11:01:51;;;;;;;2.75;2.42;;;23.90;42.90;;;;;;5098482;28;20071;-71
2022/04/09 11:04:34;;;;;;;4.07;2.00;;;24.00;43.30;;;;;;5098415;28;20112;-70
2022/04/09 11:07:01;;;;;;;;;;;23.90;43.60;;;;;;5098774;28;20082;-72
2022/04/09 11:09:59;;;;;;;1.98;1.00;;;24.10;43.80;;;;;;5080689;28;19920;-71
2022/04/09 11:12:41;;;;;;;1.67;1.25;;;23.90;44.10;;;;;;5077995;28;20036;-71
2022/04/09 11:15:10;;;;;;;1.63;1.53;;;23.90;44.20;;;;;;5078086;28;20033;-71
2022/04/09 11:17:38;;;;;;;2.17;1.33;;;23.90;44.20;;;;;;5078267;28;20132;-70
2022/04/09 11:20:11;;;;;;;2.33;1.90;;;23.90;44.20;;;;;;5077963;28;20067;-72
2022/04/09 11:22:41;;;;;;;6.40;2.20;;;23.90;44.40;;;;;;5077998;28;20052;-71
2022/04/09 11:25:17;;;;;;;1.52;1.42;;;23.80;44.40;;;;;;5077931;28;20040;-72
2022/04/09 11:27:43;;;;;;;3.13;1.55;;;24.00;44.60;;;;;;5077841;28;20120;-72
2022/04/09 11:30:12;;;;;;;0.80;0.80;;;23.90;44.80;;;;;;5077805;28;20067;-72
2022/04/09 11:32:38;;;;;;;0.80;0.80;;;23.90;45.10;;;;;;5077589;28;20040;-73
2022/04/09 11:35:13;;;;;;;2.58;1.75;;;23.80;45.00;;;;;;5077747;28;20033;-73
2022/04/09 11:37:48;;;;;;;0.98;0.98;;;24.00;49.70;;;;;;5077977;28;20064;-72
2022/04/09 11:40:15;;;;;;;3.53;1.77;;;23.90;49.20;;;;;;5077632;28;20040;-72
2022/04/09 11:42:44;;;;;;;2.65;1.60;;;23.90;47.20;;;;;;5077449;28;20044;-74
2022/04/09 11:45:29;;;;;;;1.30;1.23;;;23.90;45.40;;;;;;5077325;28;20049;-71
2022/04/09 11:47:59;;;;;;;1.77;1.10;;;23.90;44.80;;;;;;5076814;28;20043;-72
2022/04/09 11:50:30;;;;;;;2.30;1.20;;;24.00;44.40;;;;;;5076853;28;20033;-72
2022/04/09 11:53:08;;;;;;;1.40;1.17;;;23.80;43.90;;;;;;5077680;28;20063;-72
2022/04/09 11:55:35;;;;;;;0.98;0.90;;;23.80;44.30;;;;;;5076936;28;20040;-72
2022/04/09 11:58:01;;;;;;;1.83;1.13;;;23.80;44.60;;;;;;5075821;28;20047;-71
2022/04/09 12:00:27;;;;;;;3.92;1.08;;;23.60;44.40;;;;;;5075744;28;20033;-71
2022/04/09 12:02:54;;;;;;;1.70;1.17;;;23.80;44.10;;;;;;5075936;28;20062;-72
2022/04/09 12:05:20;;;;;;;1.58;1.20;;;23.70;44.70;;;;;;5075341;28;20096;-72
2022/04/09 12:07:48;;;;;;;1.13;1.02;;;23.80;44.80;;;;;;5076712;28;20047;-72
2022/04/09 12:10:30;;;;;;;1.08;1.00;;;23.80;45.00;;;;;;5076586;28;20033;-72
2022/04/09 12:13:03;;;;;;;1.17;0.88;;;23.60;44.90;;;;;;5076574;28;20045;-72
2022/04/09 12:15:30;;;;;;;;;;;23.70;45.10;;;;;;5076959;28;20040;-71
2022/04/09 12:17:56;;;;;;;1.02;1.00;;;23.60;45.10;;;;;;5076748;28;19908;-72
2022/04/09 12:20:40;;;;;;;1.75;1.10;;;23.60;45.20;;;;;;5076142;28;20041;-71
2022/04/09 12:23:08;;;;;;;4.07;1.40;;;23.70;45.30;;;;;;5077056;28;20044;-71
2022/04/09 12:25:39;;;;;;;1.17;0.93;;;23.80;45.30;;;;;;5076508;28;20033;-72
2022/04/09 12:28:17;;;;;;;4.57;1.35;;;23.70;45.40;;;;;;5076472;28;20040;-72
2022/04/09 12:30:47;;;;;;;2.53;1.20;;;23.60;45.40;;;;;;5076889;28;20043;-72
2022/04/09 12:33:13;;;;;;;1.42;0.90;;;23.70;45.60;;;;;;5076291;28;20051;-72
2022/04/09 12:35:41;;;;;;;3.40;1.33;;;23.80;45.70;;;;;;5076315;28;20068;-72
2022/04/09 12:38:08;;;;;;;2.05;1.40;;;23.70;45.80;;;;;;5076115;28;20386;-72
2022/04/09 12:40:35;;;;;;;0.65;0.65;;;23.60;45.80;;;;;;5076534;28;20116;-72
2022/04/09 12:43:03;;;;;;;0.60;0.60;;;23.70;45.90;;;;;;5076462;28;20048;-71
2022/04/09 12:45:30;;;;;;;1.50;1.20;;;23.60;46.30;;;;;;5075554;28;20116;-72
2022/04/09 12:48:01;;;;;;;0.73;0.73;;;23.70;46.40;;;;;;5076303;28;20037;-71
2022/04/09 12:50:32;;;;;;;0.80;0.80;;;23.70;46.60;;;;;;5076584;28;20045;-72
2022/04/09 12:53:03;;;;;;;0.30;0.30;;;23.60;46.60;;;;;;5075303;28;20051;-71
2022/04/09 12:55:31;;;;;;;0.82;0.75;;;23.50;46.70;;;;;;5076287;28;20100;-71
2022/04/09 12:57:58;;;;;;;0.82;0.70;;;23.60;46.60;;;;;;5076452;28;20049;-71
2022/04/09 13:00:25;;;;;;;0.38;0.38;;;23.50;46.50;;;;;;5075623;28;20045;-71